Kezdőlap
METAR-TAF:

METAR-TAF

Repülőterek :

Chaitén, Chile

földrajzi szélesség: 42-55-58S, földrajzi hosszúság: 072-41-58W, magasság: 4 m

Jelenlegi meteorológiai megfigyelések

A jelentés 56 perccel ezelõtt készült, 06:00 UTC
Északi szél 14 kt
Hőmérséklet 12°C
Páratartalom 88%
Légköri nyomás 1006 hPa
Látótávolság 10 km, vagy több
Kevés felhő 1900 lábon
Borult 3800 lábon

METAR: SCTN 250600Z AUTO 35014KT 9999 FEW019 OVC038 12/10 Q1006

Idő: 02:56 (06:56 UTC)


TAF: hiányzik

Meteorológiai megfigyelések és előrejelzések több, mint 4000 repülőtéren (METAR és TAF jelentéseket).

A térképen piros és sárga pontok jelzik az elérhető meteorológiai állomásokat.

Mozgassa az egeret a pont fölött, hogy megjelenjen az állomás neve.

Azután kattintson az időjárási megfigyelések és előrejelzések megtekintéséhez.

A térkép megváltoztatása: kattintson a fekete keresztel jelölt zöld gombra ráközelítéshez, a vonallal jelölt zöld gombra távolításhoz, vagy a zöld nyilakra a szomszédos térképek eléréséhez.


METAR-TAF: